createdAt,value
2022-12-06T00:01:09.237Z,1.56
2022-12-06T00:03:39.807Z,1.63
2022-12-06T00:06:12.070Z,1.67
2022-12-06T00:08:47.231Z,1.66
2022-12-06T00:11:20.971Z,1.62
2022-12-06T00:13:54.717Z,1.67
2022-12-06T00:16:25.777Z,1.76
2022-12-06T00:19:15.150Z,1.81
2022-12-06T00:21:50.207Z,1.78
2022-12-06T00:24:26.030Z,1.65
2022-12-06T00:26:57.502Z,1.62
2022-12-06T00:29:29.998Z,1.68
2022-12-06T00:32:01.260Z,1.61
2022-12-06T00:34:31.455Z,1.70
2022-12-06T00:37:03.628Z,1.60
2022-12-06T00:39:39.694Z,1.69
2022-12-06T00:42:10.635Z,1.63
2022-12-06T00:44:42.139Z,1.64
2022-12-06T00:47:13.250Z,1.61
2022-12-06T00:49:43.972Z,1.62
2022-12-06T00:52:14.813Z,1.55
2022-12-06T00:54:48.860Z,1.64
2022-12-06T00:57:19.762Z,1.70
2022-12-06T00:59:50.289Z,1.63
2022-12-06T01:02:22.610Z,1.60
2022-12-06T01:04:53.700Z,1.66
2022-12-06T01:07:24.459Z,1.60
2022-12-06T01:09:58.174Z,1.64
2022-12-06T01:12:29.008Z,1.53
2022-12-06T01:14:59.452Z,1.62
2022-12-06T01:20:43.712Z,1.56
2022-12-06T01:23:14.299Z,1.52
2022-12-06T01:25:55.084Z,1.56
2022-12-06T01:28:25.716Z,1.69
2022-12-06T01:30:55.976Z,1.82
2022-12-06T01:33:27.026Z,1.66
2022-12-06T01:35:57.222Z,1.69
2022-12-06T01:38:27.506Z,1.50
2022-12-06T01:41:00.171Z,1.58
2022-12-06T01:43:40.434Z,1.58
2022-12-06T01:46:20.845Z,1.69
2022-12-06T01:48:54.552Z,1.61
2022-12-06T01:51:25.244Z,1.54
2022-12-06T01:53:56.888Z,1.58
2022-12-06T01:56:29.623Z,1.63
2022-12-06T01:59:01.957Z,1.66
2022-12-06T02:01:33.007Z,1.58
2022-12-06T02:04:04.436Z,1.64
2022-12-06T02:06:35.193Z,1.59
2022-12-06T02:09:09.298Z,1.56
2022-12-06T02:11:43.764Z,1.58
2022-12-06T02:14:17.926Z,1.63
2022-12-06T02:17:02.866Z,1.57
2022-12-06T02:19:57.574Z,1.45
2022-12-06T02:22:34.016Z,1.52
2022-12-06T02:25:20.975Z,1.52
2022-12-06T02:28:19.733Z,1.56
2022-12-06T02:31:00.916Z,1.46
2022-12-06T02:33:38.303Z,1.48
2022-12-06T02:36:14.642Z,1.52
2022-12-06T02:38:50.342Z,1.58
2022-12-06T02:41:25.752Z,1.41
2022-12-06T02:44:02.308Z,1.41
2022-12-06T02:46:38.875Z,1.49
2022-12-06T02:49:12.014Z,1.44
2022-12-06T02:51:43.642Z,1.54
2022-12-06T02:54:15.297Z,1.50
2022-12-06T02:56:45.729Z,1.41
2022-12-06T02:59:15.645Z,1.55
2022-12-06T03:01:54.007Z,1.43
2022-12-06T03:04:49.816Z,1.36
2022-12-06T03:07:40.742Z,1.31
2022-12-06T03:10:30.015Z,1.23
2022-12-06T03:13:10.324Z,1.26
2022-12-06T03:15:51.127Z,1.26
2022-12-06T03:18:32.050Z,1.39
2022-12-06T03:21:08.494Z,1.26
2022-12-06T03:23:44.707Z,1.29
2022-12-06T03:26:19.399Z,1.30
2022-12-06T03:28:52.739Z,1.23
2022-12-06T03:31:23.833Z,1.20
2022-12-06T03:34:01.172Z,1.15
2022-12-06T03:36:32.727Z,1.15
2022-12-06T03:39:06.710Z,1.22
2022-12-06T03:41:50.082Z,1.30
2022-12-06T03:44:21.510Z,1.39
2022-12-06T03:46:55.707Z,1.39
2022-12-06T03:49:33.989Z,1.41
2022-12-06T03:52:04.131Z,1.29
2022-12-06T03:54:34.547Z,1.37
2022-12-06T03:57:04.594Z,1.29
2022-12-06T03:59:34.934Z,1.25
2022-12-06T04:02:05.013Z,1.24
2022-12-06T04:04:38.182Z,1.33
2022-12-06T04:07:08.240Z,1.49
2022-12-06T04:09:50.998Z,1.42
2022-12-06T04:12:33.662Z,1.42
2022-12-06T04:15:04.294Z,1.37
2022-12-06T04:17:46.748Z,1.41
2022-12-06T04:20:19.927Z,1.42
2022-12-06T04:23:10.774Z,1.51
2022-12-06T04:25:41.227Z,1.50
2022-12-06T04:28:23.647Z,1.51
2022-12-06T04:31:06.476Z,1.41
2022-12-06T04:33:48.996Z,1.41
2022-12-06T04:36:34.422Z,1.34
2022-12-06T04:39:04.458Z,1.40
2022-12-06T04:41:47.210Z,1.46
2022-12-06T04:44:17.241Z,1.39
2022-12-06T04:46:47.914Z,1.33
2022-12-06T04:49:17.850Z,1.26
2022-12-06T04:51:52.249Z,1.23
2022-12-06T04:54:22.413Z,1.31
2022-12-06T04:56:53.112Z,1.38
2022-12-06T04:59:23.047Z,1.44
2022-12-06T05:01:53.659Z,1.47
2022-12-06T05:04:24.445Z,1.39
2022-12-06T05:06:57.517Z,1.53
2022-12-06T05:09:27.661Z,1.41
2022-12-06T05:11:58.239Z,1.28
2022-12-06T05:14:28.373Z,1.33
2022-12-06T05:16:58.998Z,1.40
2022-12-06T05:19:28.939Z,1.37
2022-12-06T05:22:02.267Z,1.43
2022-12-06T05:24:32.321Z,1.39
2022-12-06T05:27:02.907Z,1.41
2022-12-06T05:29:32.946Z,1.44
2022-12-06T05:32:03.420Z,1.38
2022-12-06T05:34:33.500Z,1.48
2022-12-06T05:37:06.445Z,1.44
2022-12-06T05:39:36.526Z,1.52
2022-12-06T05:42:06.968Z,1.51
2022-12-06T05:44:37.085Z,1.55
2022-12-06T05:47:08.011Z,1.40
2022-12-06T05:49:38.330Z,1.39
2022-12-06T05:52:11.598Z,1.46
2022-12-06T05:54:41.551Z,1.52
2022-12-06T05:57:11.856Z,1.50
2022-12-06T05:59:41.785Z,1.40
2022-12-06T06:02:12.227Z,1.40
2022-12-06T06:04:42.314Z,1.36
2022-12-06T06:07:15.347Z,1.43
2022-12-06T06:09:45.440Z,1.43
2022-12-06T06:12:15.932Z,1.44
2022-12-06T06:14:45.849Z,1.52
2022-12-06T06:17:17.047Z,1.54
2022-12-06T06:19:51.278Z,1.60
2022-12-06T06:22:24.930Z,1.52
2022-12-06T06:24:54.936Z,1.50
2022-12-06T06:27:25.213Z,1.51
2022-12-06T06:29:55.256Z,1.50
2022-12-06T06:32:25.572Z,1.62
2022-12-06T06:34:55.583Z,1.55
2022-12-06T06:37:28.647Z,1.40
2022-12-06T06:40:00.522Z,1.53
2022-12-06T06:42:31.062Z,1.55
2022-12-06T06:45:00.953Z,1.48
2022-12-06T06:47:31.586Z,1.54
2022-12-06T06:50:01.885Z,1.57
2022-12-06T06:52:35.600Z,1.38
2022-12-06T06:55:05.705Z,1.43
2022-12-06T06:57:36.202Z,1.38
2022-12-06T07:00:07.475Z,1.36
2022-12-06T07:02:39.624Z,1.28
2022-12-06T07:05:10.843Z,1.26
2022-12-06T07:07:44.439Z,1.31
2022-12-06T07:10:15.383Z,1.22
2022-12-06T07:12:45.801Z,1.16
2022-12-06T07:15:16.036Z,1.21
2022-12-06T07:17:46.343Z,1.13
2022-12-06T07:20:16.405Z,1.26
2022-12-06T07:22:49.491Z,1.18
2022-12-06T07:25:19.526Z,1.23
2022-12-06T07:27:49.931Z,1.20
2022-12-06T07:30:25.697Z,1.19
2022-12-06T07:32:58.680Z,1.13
2022-12-06T07:35:48.567Z,1.10
2022-12-06T07:38:21.857Z,1.21
2022-12-06T07:41:07.206Z,1.23
2022-12-06T07:43:50.211Z,1.05
2022-12-06T07:46:21.229Z,1.17
2022-12-06T07:48:51.931Z,1.15
2022-12-06T07:51:22.328Z,1.17
2022-12-06T07:53:55.636Z,1.18
2022-12-06T07:56:26.613Z,1.24
2022-12-06T07:58:57.225Z,1.28
2022-12-06T08:01:27.505Z,1.27
2022-12-06T08:03:58.406Z,1.27
2022-12-06T08:06:28.477Z,1.14
2022-12-06T08:09:01.831Z,1.12
2022-12-06T08:11:34.761Z,1.12
2022-12-06T08:14:05.782Z,1.15
2022-12-06T08:16:36.735Z,1.10
2022-12-06T08:19:09.885Z,1.16
2022-12-06T08:21:40.261Z,1.16
2022-12-06T08:24:14.257Z,1.22
2022-12-06T08:26:44.317Z,1.15
2022-12-06T08:29:14.829Z,1.21
2022-12-06T08:32:14.991Z,1.11
2022-12-06T08:34:45.757Z,1.25
2022-12-06T08:37:18.598Z,1.26
2022-12-06T08:39:51.492Z,1.35
2022-12-06T08:42:26.128Z,1.20
2022-12-06T08:45:10.050Z,1.32
2022-12-06T08:47:40.372Z,1.37
2022-12-06T08:50:11.443Z,1.50
2022-12-06T08:52:41.585Z,1.26
2022-12-06T08:55:17.318Z,1.25
2022-12-06T08:57:48.895Z,1.34
2022-12-06T09:00:24.242Z,1.32
2022-12-06T09:02:54.656Z,1.24
2022-12-06T09:05:25.235Z,1.17
2022-12-06T09:07:55.335Z,1.21
2022-12-06T09:10:31.605Z,1.24
2022-12-06T09:13:01.626Z,1.31
2022-12-06T09:15:34.008Z,1.32
2022-12-06T09:18:04.328Z,1.34
2022-12-06T09:20:34.772Z,1.20
2022-12-06T09:23:04.742Z,1.39
2022-12-06T09:25:44.145Z,1.31
2022-12-06T09:28:14.940Z,1.30
2022-12-06T09:30:45.735Z,1.40
2022-12-06T09:33:15.885Z,1.35
2022-12-06T09:35:46.304Z,1.36
2022-12-06T09:38:16.850Z,1.40
2022-12-06T09:41:01.090Z,1.37
2022-12-06T09:43:45.328Z,1.47
2022-12-06T09:46:42.878Z,1.40
2022-12-06T09:49:35.014Z,1.44
2022-12-06T09:52:28.944Z,1.48
2022-12-06T09:55:11.548Z,1.51
2022-12-06T09:57:51.168Z,1.50
2022-12-06T10:00:24.217Z,1.54
2022-12-06T10:03:19.176Z,1.53
2022-12-06T10:06:03.991Z,1.58
2022-12-06T10:08:52.618Z,1.60
2022-12-06T10:11:34.414Z,1.65
2022-12-06T10:14:22.959Z,1.62
2022-12-06T10:17:02.624Z,1.62
2022-12-06T10:19:49.749Z,1.65
2022-12-06T10:22:28.890Z,1.70
2022-12-06T10:25:10.893Z,1.60
2022-12-06T10:27:47.502Z,1.67
2022-12-06T10:30:22.815Z,1.60
2022-12-06T10:32:55.771Z,1.56
2022-12-06T10:35:42.629Z,1.68
2022-12-06T10:38:26.395Z,1.66
2022-12-06T10:41:09.143Z,1.72
2022-12-06T10:43:51.273Z,1.76
2022-12-06T10:46:49.514Z,1.74
2022-12-06T10:49:32.734Z,1.61
2022-12-06T10:52:10.292Z,1.54
2022-12-06T10:54:45.721Z,1.49
2022-12-06T10:57:24.057Z,1.52
2022-12-06T11:00:03.922Z,1.55
2022-12-06T11:02:43.147Z,1.62
2022-12-06T11:05:27.287Z,1.62
2022-12-06T11:08:04.995Z,1.65
2022-12-06T11:10:37.380Z,1.76
2022-12-06T11:13:19.765Z,1.75
2022-12-06T11:16:01.483Z,1.80
2022-12-06T11:18:33.219Z,1.74
2022-12-06T11:21:16.467Z,1.52
2022-12-06T11:23:56.185Z,1.53
2022-12-06T11:26:36.866Z,1.61
2022-12-06T11:29:12.838Z,1.54
2022-12-06T11:31:48.481Z,1.63
2022-12-06T11:34:21.498Z,1.64
2022-12-06T11:37:00.367Z,1.63
2022-12-06T11:39:32.087Z,1.66
2022-12-06T11:42:12.555Z,1.66
2022-12-06T11:44:49.677Z,1.69
2022-12-06T11:47:23.595Z,1.65
2022-12-06T11:50:00.382Z,1.76
2022-12-06T11:52:41.870Z,1.65
2022-12-06T11:55:19.500Z,1.63
2022-12-06T11:57:54.803Z,1.71
2022-12-06T12:00:26.915Z,1.71
2022-12-06T12:02:59.083Z,1.62
2022-12-06T12:05:34.442Z,1.65
2022-12-06T12:08:09.803Z,1.71
2022-12-06T12:10:42.356Z,1.65
2022-12-06T12:13:34.732Z,1.64
2022-12-06T12:16:09.004Z,1.62
2022-12-06T12:18:41.367Z,1.67
2022-12-06T12:21:12.207Z,1.64
2022-12-06T12:23:47.681Z,1.72
2022-12-06T12:26:19.949Z,1.65
2022-12-06T12:29:05.957Z,1.72
2022-12-06T12:31:48.012Z,1.67
2022-12-06T12:34:27.960Z,1.78
2022-12-06T12:37:05.600Z,1.79
2022-12-06T12:39:42.314Z,1.81
2022-12-06T12:42:29.843Z,1.79
2022-12-06T12:45:03.726Z,1.80
2022-12-06T12:47:38.055Z,1.78
2022-12-06T12:50:25.565Z,1.75
2022-12-06T12:52:56.841Z,1.66
2022-12-06T12:55:31.212Z,1.70
2022-12-06T12:58:03.305Z,1.69
2022-12-06T13:00:38.154Z,1.78
2022-12-06T13:03:48.981Z,1.83
2022-12-06T13:06:05.123Z,1.81
2022-12-06T13:08:38.860Z,1.86
2022-12-06T13:11:11.862Z,1.82
2022-12-06T13:13:46.079Z,1.77
2022-12-06T13:16:20.968Z,1.87
2022-12-06T13:18:55.877Z,1.85
2022-12-06T13:21:30.462Z,1.83
2022-12-06T13:24:08.906Z,1.79
2022-12-06T13:26:45.757Z,1.85
2022-12-06T13:29:25.505Z,1.82
2022-12-06T13:31:57.554Z,1.71
2022-12-06T13:34:37.584Z,1.80
2022-12-06T13:37:29.668Z,1.82
2022-12-06T13:40:00.788Z,1.64
2022-12-06T13:42:50.737Z,1.71
2022-12-06T13:45:45.507Z,1.76
2022-12-06T13:48:51.702Z,1.63
2022-12-06T13:51:50.172Z,1.73
2022-12-06T13:54:38.122Z,1.69
2022-12-06T13:57:33.028Z,1.73
2022-12-06T14:00:45.224Z,1.70
2022-12-06T14:03:43.274Z,1.70
2022-12-06T14:06:16.112Z,1.65
2022-12-06T14:08:48.102Z,1.75
2022-12-06T14:11:27.742Z,1.75
2022-12-06T14:14:08.840Z,1.71
2022-12-06T14:16:44.457Z,1.69
2022-12-06T14:19:21.262Z,1.70
2022-12-06T14:21:57.798Z,1.67
2022-12-06T14:24:36.546Z,1.69
2022-12-06T14:27:09.348Z,1.71
2022-12-06T14:29:39.985Z,1.81
2022-12-06T14:32:13.058Z,1.82
2022-12-06T14:34:43.376Z,1.72
2022-12-06T14:37:23.472Z,1.78
2022-12-06T14:39:55.778Z,1.79
2022-12-06T14:42:38.320Z,1.67
2022-12-06T14:45:16.021Z,1.57
2022-12-06T14:47:49.094Z,1.65
2022-12-06T14:50:26.500Z,1.55
2022-12-06T14:53:06.538Z,1.66
2022-12-06T14:55:38.750Z,1.70
2022-12-06T14:58:20.014Z,1.67
2022-12-06T15:00:57.893Z,1.55
2022-12-06T15:03:38.025Z,1.61
2022-12-06T15:06:14.943Z,1.66
2022-12-06T15:08:51.812Z,1.72
2022-12-06T15:11:41.387Z,1.41
2022-12-06T15:14:17.198Z,1.42
2022-12-06T15:16:57.706Z,1.31
2022-12-06T15:19:32.242Z,1.31
2022-12-06T15:22:04.155Z,1.35
2022-12-06T15:24:37.034Z,1.26
2022-12-06T15:27:09.575Z,1.22
2022-12-06T15:29:39.486Z,1.32
2022-12-06T15:32:09.984Z,1.24
2022-12-06T15:34:42.516Z,1.34
2022-12-06T15:40:04.663Z,1.27
2022-12-06T15:42:36.074Z,1.23
2022-12-06T15:45:07.016Z,1.25
2022-12-06T15:47:37.471Z,1.25
2022-12-06T15:50:12.756Z,1.27
2022-12-06T15:52:43.107Z,1.24
2022-12-06T15:55:19.721Z,1.35
2022-12-06T15:57:49.979Z,1.41
2022-12-06T16:00:22.621Z,1.32
2022-12-06T16:02:54.555Z,1.23
2022-12-06T16:05:27.181Z,1.20
2022-12-06T16:07:58.049Z,1.29
2022-12-06T16:10:48.705Z,1.26
2022-12-06T16:13:24.499Z,1.31
2022-12-06T16:15:55.284Z,1.24
2022-12-06T16:18:25.589Z,1.26
2022-12-06T16:20:59.355Z,1.17
2022-12-06T16:24:12.063Z,1.19
2022-12-06T16:26:36.102Z,1.24
2022-12-06T16:29:08.961Z,1.26
2022-12-06T16:31:41.154Z,1.26
2022-12-06T16:34:12.134Z,1.26
2022-12-06T16:37:02.576Z,1.28
2022-12-06T16:39:35.388Z,1.31
2022-12-06T16:42:07.017Z,1.34
2022-12-06T16:44:51.050Z,1.25
2022-12-06T16:49:51.633Z,1.41
2022-12-06T16:52:24.259Z,1.42
2022-12-06T16:54:54.605Z,1.50
2022-12-06T16:57:27.709Z,1.50
2022-12-06T16:59:57.953Z,1.34
2022-12-06T17:02:30.222Z,1.32
2022-12-06T17:05:06.376Z,1.44
2022-12-06T17:07:41.006Z,1.41
2022-12-06T17:10:12.493Z,1.46
2022-12-06T17:12:59.622Z,1.43
2022-12-06T17:15:34.693Z,1.48
2022-12-06T17:18:21.028Z,1.48
2022-12-06T17:20:54.692Z,1.60
2022-12-06T17:23:40.812Z,1.61
2022-12-06T17:26:20.773Z,1.52
2022-12-06T17:28:51.021Z,1.55
2022-12-06T17:31:21.727Z,1.60
2022-12-06T17:33:53.786Z,1.49
2022-12-06T17:36:28.325Z,1.56
2022-12-06T17:39:01.986Z,1.58
2022-12-06T17:41:51.415Z,1.57
2022-12-06T17:44:23.149Z,1.59
2022-12-06T17:46:53.801Z,1.58
2022-12-06T17:49:25.457Z,1.57
2022-12-06T17:51:56.426Z,1.63
2022-12-06T17:54:29.378Z,1.67
2022-12-06T17:57:00.100Z,1.63
2022-12-06T17:59:32.155Z,1.67
2022-12-06T18:02:15.214Z,1.64
2022-12-06T18:04:46.538Z,1.64
2022-12-06T18:07:17.825Z,1.65
2022-12-06T18:09:50.433Z,1.75
2022-12-06T18:12:20.928Z,1.65
2022-12-06T18:14:51.043Z,1.68
2022-12-06T18:17:21.386Z,1.65
2022-12-06T18:19:51.384Z,1.67
2022-12-06T18:22:21.616Z,1.72
2022-12-06T18:24:54.174Z,1.72
2022-12-06T18:27:26.127Z,1.77
2022-12-06T18:29:56.896Z,1.72
2022-12-06T18:32:27.369Z,1.80
2022-12-06T18:34:57.321Z,1.78
2022-12-06T18:37:32.367Z,1.78
2022-12-06T18:40:05.024Z,1.81
2022-12-06T18:42:38.416Z,1.88
2022-12-06T18:45:09.926Z,1.91
2022-12-06T18:47:40.431Z,1.95
2022-12-06T18:50:11.925Z,1.97
2022-12-06T18:52:42.182Z,1.98
2022-12-06T18:55:14.797Z,1.97
2022-12-06T18:57:45.296Z,1.98
2022-12-06T19:00:16.710Z,1.93
2022-12-06T19:02:47.336Z,1.95
2022-12-06T19:05:33.030Z,1.95
2022-12-06T19:08:08.871Z,1.97
2022-12-06T19:10:41.581Z,1.97
2022-12-06T19:13:12.985Z,1.99
2022-12-06T19:15:42.967Z,1.94
2022-12-06T19:18:13.701Z,1.90
2022-12-06T19:20:43.672Z,1.95
2022-12-06T19:23:13.919Z,1.90
2022-12-06T19:25:46.501Z,1.97
2022-12-06T19:28:16.731Z,2.01
2022-12-06T19:30:46.697Z,1.95
2022-12-06T19:33:16.999Z,1.96
2022-12-06T19:35:46.937Z,1.89
2022-12-06T19:38:17.247Z,1.91
2022-12-06T19:40:50.232Z,1.93
2022-12-06T19:43:33.034Z,1.97
2022-12-06T19:46:11.069Z,1.89
2022-12-06T19:48:41.821Z,1.95
2022-12-06T19:51:11.896Z,1.99
2022-12-06T19:53:43.438Z,2.00
2022-12-06T19:56:20.210Z,1.99
2022-12-06T19:58:50.966Z,1.99
2022-12-06T20:01:23.619Z,1.98
2022-12-06T20:03:54.669Z,1.99
2022-12-06T20:06:30.599Z,2.01
2022-12-06T20:09:03.384Z,1.98
2022-12-06T20:11:51.482Z,2.03
2022-12-06T20:14:21.765Z,2.03
2022-12-06T20:16:51.958Z,2.03
2022-12-06T20:19:24.288Z,2.01
2022-12-06T20:21:54.472Z,2.03
2022-12-06T20:24:24.979Z,2.00
2022-12-06T20:26:58.550Z,2.06
2022-12-06T20:29:30.068Z,2.06
2022-12-06T20:32:01.235Z,2.08
2022-12-06T20:34:34.345Z,2.08
2022-12-06T20:37:06.374Z,2.10
2022-12-06T20:39:37.607Z,2.06
2022-12-06T20:42:10.204Z,2.09
2022-12-06T20:44:40.463Z,2.06
2022-12-06T20:47:10.425Z,2.07
2022-12-06T20:49:40.833Z,2.08
2022-12-06T20:52:10.756Z,2.12
2022-12-06T20:54:41.419Z,2.07
2022-12-06T20:57:13.966Z,2.07
2022-12-06T21:00:19.407Z,2.07
2022-12-06T21:02:49.459Z,2.04
2022-12-06T21:05:19.981Z,2.02
2022-12-06T21:07:49.953Z,2.08
2022-12-06T21:10:20.395Z,2.07
2022-12-06T21:12:52.885Z,2.06
2022-12-06T21:15:23.165Z,2.11
2022-12-06T21:17:53.095Z,2.10
2022-12-06T21:20:26.635Z,2.06
2022-12-06T21:22:56.719Z,2.07
2022-12-06T21:25:27.133Z,2.11
2022-12-06T21:28:00.191Z,2.11
2022-12-06T21:30:30.870Z,2.10
2022-12-06T21:33:01.758Z,2.10
2022-12-06T21:35:32.073Z,2.11
2022-12-06T21:38:01.997Z,2.09
2022-12-06T21:40:32.496Z,2.09
2022-12-06T21:43:05.531Z,2.11
2022-12-06T21:45:37.459Z,2.11
2022-12-06T21:48:08.600Z,2.11
2022-12-06T21:50:39.304Z,2.09
2022-12-06T21:53:09.669Z,2.06
2022-12-06T21:55:41.213Z,2.05
2022-12-06T21:58:13.815Z,2.00
2022-12-06T22:00:44.115Z,2.05
2022-12-06T22:03:19.179Z,2.06
2022-12-06T22:05:53.064Z,2.03
2022-12-06T22:08:23.380Z,2.00
2022-12-06T22:10:54.197Z,1.95
2022-12-06T22:13:27.125Z,1.99
2022-12-06T22:15:57.821Z,1.96
2022-12-06T22:18:28.978Z,1.96
2022-12-06T22:21:06.247Z,2.02
2022-12-06T22:23:37.227Z,1.98
2022-12-06T22:26:09.757Z,1.96
2022-12-06T22:28:42.260Z,2.01
2022-12-06T22:31:14.363Z,1.94
2022-12-06T22:33:44.963Z,1.96
2022-12-06T22:36:16.421Z,1.93
2022-12-06T22:38:46.588Z,1.94
2022-12-06T22:41:16.912Z,1.94
2022-12-06T22:43:52.574Z,1.96
2022-12-06T22:46:23.463Z,1.94
2022-12-06T22:48:53.491Z,1.92
2022-12-06T22:51:25.533Z,1.85
2022-12-06T22:53:57.401Z,1.91
2022-12-06T22:56:28.218Z,1.84
2022-12-06T22:59:02.624Z,1.86
2022-12-06T23:01:35.061Z,1.92
2022-12-06T23:04:07.420Z,1.89
2022-12-06T23:06:39.016Z,1.88
2022-12-06T23:09:10.209Z,1.83
2022-12-06T23:11:40.572Z,1.90
2022-12-06T23:14:14.016Z,1.87
2022-12-06T23:16:47.632Z,1.88
2022-12-06T23:19:17.651Z,1.87
2022-12-06T23:21:49.906Z,1.79
2022-12-06T23:24:21.465Z,1.66
2022-12-06T23:26:57.758Z,1.71
2022-12-06T23:29:30.852Z,1.76
2022-12-06T23:32:01.289Z,1.74
2022-12-06T23:34:39.285Z,1.65
2022-12-06T23:37:09.555Z,1.68
2022-12-06T23:39:42.197Z,1.72
2022-12-06T23:42:12.512Z,1.63
2022-12-06T23:44:45.046Z,1.62
2022-12-06T23:47:15.427Z,1.64
2022-12-06T23:49:45.443Z,1.58
2022-12-06T23:52:15.869Z,1.57
2022-12-06T23:54:45.890Z,1.44
2022-12-06T23:57:16.337Z,1.36
2022-12-06T23:59:48.959Z,1.34
